Time;durP1;ratioP1;P1;durP2;ratioP2;P2;SDS_P1;SDS_P2;PMS_P1;PMS_P2;Temp;Humidity;BMP_temperature;BMP_pressure;BME280_temperature;BME280_humidity;BME280_pressure;Samples;Min_cycle;Max_cycle;Signal;HPM_P1;HPM_P2
2023/05/15 00:01:20;;;;;;;9.80;7.80;;;;;;;8.23;100.00;98190.97;4181267;28;20284;-73
2023/05/15 00:03:21;;;;;;;9.68;7.68;;;;;;;8.18;100.00;98196.78;4176270;28;20130;-72
2023/05/15 00:05:21;;;;;;;8.90;7.53;;;;;;;8.04;100.00;98177.28;4185879;28;20083;-73
2023/05/15 00:07:21;;;;;;;10.00;7.75;;;;;;;7.91;100.00;98182.16;4184648;28;20492;-73
2023/05/15 00:09:22;;;;;;;10.65;7.03;;;;;;;7.79;100.00;98183.16;4184353;28;20299;-72
2023/05/15 00:11:22;;;;;;;9.70;7.97;;;;;;;7.77;100.00;98177.19;4181548;28;20037;-73
2023/05/15 00:13:22;;;;;;;10.10;8.15;;;;;;;7.74;100.00;98180.69;4177558;28;20073;-73
2023/05/15 00:15:23;;;;;;;9.90;7.78;;;;;;;7.62;100.00;98171.84;4182619;28;20473;-73
2023/05/15 00:17:24;;;;;;;11.48;8.65;;;;;;;7.49;100.00;98169.22;4182990;28;20119;-73
2023/05/15 00:19:24;;;;;;;8.93;7.57;;;;;;;7.42;100.00;98171.84;4182384;28;20516;-73
2023/05/15 00:21:25;;;;;;;14.20;9.60;;;;;;;7.40;100.00;98168.66;4185703;28;20047;-73
2023/05/15 00:23:25;;;;;;;11.55;8.40;;;;;;;7.36;100.00;98172.50;4183725;28;20066;-73
2023/05/15 00:25:25;;;;;;;11.63;9.00;;;;;;;7.38;100.00;98171.00;4182271;28;20474;-73
2023/05/15 00:27:26;;;;;;;11.07;9.32;;;;;;;7.45;100.00;98160.13;4183514;28;20540;-73
2023/05/15 00:29:27;;;;;;;11.93;9.30;;;;;;;7.41;100.00;98159.25;4179224;28;20065;-73
2023/05/15 00:31:27;;;;;;;13.15;10.00;;;;;;;7.37;100.00;98160.34;4179982;28;20487;-73
2023/05/15 00:33:27;;;;;;;11.40;9.07;;;;;;;7.35;100.00;98166.19;4183326;28;20152;-73
2023/05/15 00:35:28;;;;;;;10.27;8.02;;;;;;;7.28;100.00;98158.63;4179839;28;20076;-73
2023/05/15 00:37:28;;;;;;;10.80;7.15;;;;;;;7.23;100.00;98164.41;4181065;28;20045;-73
2023/05/15 00:39:28;;;;;;;11.90;7.10;;;;;;;7.17;100.00;98159.56;4182149;28;20085;-73
2023/05/15 00:41:31;;;;;;;9.05;6.60;;;;;;;7.12;100.00;98155.16;4180407;28;20044;-73
2023/05/15 00:43:32;;;;;;;9.95;7.80;;;;;;;7.06;100.00;98156.59;4182668;28;20087;-73
2023/05/15 00:45:33;;;;;;;10.18;7.47;;;;;;;7.05;100.00;98152.28;4175315;28;20072;-73
2023/05/15 00:47:34;;;;;;;13.45;7.88;;;;;;;7.10;100.00;98157.47;4183400;28;20504;-73
2023/05/15 00:49:36;;;;;;;9.90;7.13;;;;;;;7.29;100.00;98162.97;4182052;28;20035;-73
2023/05/15 00:51:36;;;;;;;9.65;7.50;;;;;;;7.46;100.00;98161.72;4187247;28;20044;-73
2023/05/15 00:53:37;;;;;;;10.25;7.85;;;;;;;7.61;100.00;98157.25;4182261;28;20045;-72
2023/05/15 00:55:39;;;;;;;9.07;7.30;;;;;;;7.61;100.00;98148.97;4182918;28;20487;-73
2023/05/15 00:57:42;;;;;;;11.87;8.80;;;;;;;7.66;100.00;98143.19;4182262;28;20037;-73
2023/05/15 00:59:44;;;;;;;12.05;7.35;;;;;;;7.55;100.00;98151.25;4182130;28;20268;-72
2023/05/15 01:01:44;;;;;;;10.43;7.15;;;;;;;7.45;100.00;98142.81;4177175;28;20237;-73
2023/05/15 01:03:45;;;;;;;13.63;7.45;;;;;;;7.36;100.00;98144.97;4179352;28;20063;-73
2023/05/15 01:05:45;;;;;;;10.82;7.90;;;;;;;7.35;100.00;98135.94;4180396;28;20473;-73
2023/05/15 01:08:15;;;;;;;11.48;8.35;;;;;;;7.33;100.00;98139.06;4181980;28;20048;-73
2023/05/15 01:10:18;;;;;;;10.68;8.32;;;;;;;7.32;100.00;98134.72;4179912;28;20495;-73
2023/05/15 01:12:22;;;;;;;8.27;7.22;;;;;;;7.31;100.00;98130.38;4184128;28;20396;-73
2023/05/15 01:14:22;;;;;;;9.65;6.68;;;;;;;7.29;100.00;98124.44;4179449;28;20053;-73
2023/05/15 01:16:23;;;;;;;8.73;7.18;;;;;;;7.29;100.00;98129.94;4182284;28;20060;-73
2023/05/15 01:18:30;;;;;;;9.48;7.88;;;;;;;7.28;100.00;98120.09;4179228;28;20044;-73
2023/05/15 01:20:38;;;;;;;9.60;7.15;;;;;;;7.30;100.00;98122.50;4184088;28;20049;-73
2023/05/15 01:22:58;;;;;;;8.02;6.47;;;;;;;7.36;100.00;98125.72;4180536;28;20047;-73
2023/05/15 01:25:14;;;;;;;9.85;6.28;;;;;;;7.40;100.00;98126.59;4181690;28;20060;-73
2023/05/15 01:27:30;;;;;;;8.13;6.60;;;;;;;7.30;100.00;98126.03;4182344;28;20500;-73
2023/05/15 01:29:48;;;;;;;9.07;6.50;;;;;;;7.19;100.00;98127.78;4180928;28;20564;-73
2023/05/15 01:31:58;;;;;;;15.65;8.32;;;;;;;7.10;100.00;98124.44;4180027;28;20057;-73
2023/05/15 01:34:02;;;;;;;10.45;7.47;;;;;;;7.07;100.00;98124.41;4178372;28;20435;-73
2023/05/15 01:36:04;;;;;;;8.98;6.93;;;;;;;7.06;100.00;98122.81;4181672;28;20497;-73
2023/05/15 01:38:08;;;;;;;8.35;6.70;;;;;;;7.02;100.00;98119.97;4183473;28;20055;-73
2023/05/15 01:40:10;;;;;;;8.52;7.32;;;;;;;6.96;100.00;98121.44;4177262;28;20036;-73
2023/05/15 01:42:15;;;;;;;8.07;7.07;;;;;;;6.93;100.00;98120.19;4182859;28;20468;-73
2023/05/15 01:44:28;;;;;;;9.85;6.47;;;;;;;6.84;100.00;98118.81;4184084;28;20036;-73
2023/05/15 01:46:30;;;;;;;7.63;6.45;;;;;;;6.79;100.00;98122.69;4181003;28;20592;-73
2023/05/15 01:48:32;;;;;;;9.38;7.18;;;;;;;6.73;100.00;98119.41;4182135;28;20123;-73
2023/05/15 01:50:34;;;;;;;9.07;6.85;;;;;;;6.76;100.00;98107.69;4177946;28;20043;-72
2023/05/15 01:52:40;;;;;;;8.13;6.80;;;;;;;6.89;100.00;98121.28;4182543;28;20156;-73
2023/05/15 01:54:41;;;;;;;8.25;6.13;;;;;;;7.05;100.00;98122.00;4176359;28;20112;-73
2023/05/15 01:56:44;;;;;;;8.38;7.00;;;;;;;7.19;100.00;98115.97;4181288;28;20410;-72
2023/05/15 01:58:47;;;;;;;8.57;7.28;;;;;;;7.17;100.00;98124.59;4184459;28;20033;-72
2023/05/15 02:00:48;;;;;;;9.23;6.53;;;;;;;7.07;100.00;98122.44;4176701;28;20049;-72
2023/05/15 02:02:48;;;;;;;10.45;7.13;;;;;;;6.87;100.00;98118.91;4181751;28;20444;-73
2023/05/15 02:04:51;;;;;;;8.52;6.25;;;;;;;6.70;100.00;98114.63;4181547;28;20408;-72
2023/05/15 02:06:52;;;;;;;8.65;6.93;;;;;;;6.54;100.00;98111.16;4181488;28;20048;-73
2023/05/15 02:08:55;;;;;;;10.18;6.88;;;;;;;6.45;100.00;98107.78;4178459;28;20025;-73
2023/05/15 02:10:58;;;;;;;8.57;6.60;;;;;;;6.42;100.00;98108.53;4183938;28;20582;-73
2023/05/15 02:12:59;;;;;;;10.63;7.80;;;;;;;6.43;100.00;98112.84;4185311;28;20469;-73
2023/05/15 02:15:02;;;;;;;7.45;6.32;;;;;;;6.52;100.00;98107.16;4187788;28;20040;-73
2023/05/15 02:17:03;;;;;;;9.00;6.70;;;;;;;6.67;100.00;98104.34;4181871;28;20122;-72
2023/05/15 02:19:03;;;;;;;9.77;6.88;;;;;;;6.84;100.00;98111.38;4186262;28;20037;-72
2023/05/15 02:21:04;;;;;;;10.07;7.05;;;;;;;6.85;100.00;98115.72;4186202;28;20037;-72
2023/05/15 02:23:04;;;;;;;8.90;6.90;;;;;;;6.81;100.00;98114.06;4186713;28;20052;-72
2023/05/15 02:25:05;;;;;;;9.55;7.15;;;;;;;6.66;100.00;98112.97;4184805;28;20470;-72
2023/05/15 02:27:12;;;;;;;9.45;7.10;;;;;;;6.55;100.00;98112.75;4186878;28;20048;-72
2023/05/15 02:29:20;;;;;;;9.45;6.68;;;;;;;6.54;100.00;98102.91;4179978;28;20055;-72
2023/05/15 02:31:37;;;;;;;9.32;6.45;;;;;;;6.63;100.00;98092.50;4184581;28;20528;-72
2023/05/15 02:33:54;;;;;;;8.57;6.53;;;;;;;6.69;100.00;98109.47;4183978;28;20049;-72
2023/05/15 02:36:02;;;;;;;8.90;6.82;;;;;;;6.67;100.00;98098.06;4181786;28;20485;-72
2023/05/15 02:38:16;;;;;;;9.52;6.82;;;;;;;6.61;100.00;98105.78;4186337;28;20574;-72
2023/05/15 02:40:19;;;;;;;11.50;7.40;;;;;;;6.40;100.00;98105.34;4183193;28;20017;-72
2023/05/15 02:42:20;;;;;;;10.10;7.07;;;;;;;6.29;100.00;98094.13;4183347;28;20449;-72
2023/05/15 02:44:22;;;;;;;9.07;6.93;;;;;;;6.36;100.00;98105.25;4180302;28;23632;-72
2023/05/15 02:46:23;;;;;;;8.48;6.70;;;;;;;6.41;100.00;98094.00;4183567;28;20048;-72
2023/05/15 02:48:24;;;;;;;13.00;7.97;;;;;;;6.46;100.00;98098.41;4186604;28;20064;-73
2023/05/15 02:50:25;;;;;;;12.30;7.35;;;;;;;6.38;100.00;98100.22;4179352;28;20437;-72
2023/05/15 02:52:25;;;;;;;10.60;7.32;;;;;;;6.26;100.00;98089.34;4184018;28;20395;-72
2023/05/15 02:54:26;;;;;;;11.48;8.07;;;;;;;6.11;100.00;98095.66;4181767;28;20033;-72
2023/05/15 02:56:26;;;;;;;9.55;7.70;;;;;;;6.00;100.00;98094.63;4182889;28;20043;-72
2023/05/15 02:58:26;;;;;;;10.20;8.05;;;;;;;5.98;100.00;98088.69;4187120;28;20094;-73
2023/05/15 03:00:27;;;;;;;12.10;7.13;;;;;;;6.04;100.00;98082.59;4181700;28;20074;-72
2023/05/15 03:02:27;;;;;;;11.68;7.63;;;;;;;6.10;100.00;98089.38;4185835;28;20149;-72
2023/05/15 03:04:27;;;;;;;10.52;7.05;;;;;;;6.16;100.00;98082.44;4185175;28;20044;-72
2023/05/15 03:06:28;;;;;;;10.98;7.25;;;;;;;6.25;100.00;98081.44;4183932;28;20377;-72
2023/05/15 03:08:28;;;;;;;17.67;7.32;;;;;;;6.26;100.00;98089.34;4181362;28;20192;-72
2023/05/15 03:10:28;;;;;;;11.65;7.40;;;;;;;6.18;100.00;98071.91;4184719;28;20358;-72
2023/05/15 03:12:28;;;;;;;14.88;6.85;;;;;;;6.07;100.00;98079.09;4182130;28;20517;-72
2023/05/15 03:14:29;;;;;;;11.68;7.25;;;;;;;5.94;100.00;98077.63;4183486;28;20044;-72
2023/05/15 03:16:29;;;;;;;8.63;6.70;;;;;;;5.85;100.00;98076.97;4185978;28;20131;-73
2023/05/15 03:18:29;;;;;;;12.57;7.10;;;;;;;5.80;100.00;98077.28;4179595;28;20045;-73
2023/05/15 03:20:30;;;;;;;11.18;7.22;;;;;;;5.88;100.00;98071.59;4183638;28;20049;-72
2023/05/15 03:22:30;;;;;;;8.95;6.65;;;;;;;5.96;100.00;98067.09;4185096;28;20037;-72
2023/05/15 03:24:30;;;;;;;11.57;6.60;;;;;;;6.04;100.00;98071.59;4184609;28;20437;-72
2023/05/15 03:26:31;;;;;;;11.15;6.85;;;;;;;6.07;100.00;98070.88;4187070;28;20063;-72
2023/05/15 03:28:31;;;;;;;14.18;6.47;;;;;;;6.05;100.00;98067.69;4178066;28;20041;-72
2023/05/15 03:30:31;;;;;;;8.45;6.20;;;;;;;5.93;100.00;98064.25;4181690;28;20041;-72
2023/05/15 03:32:32;;;;;;;10.85;7.30;;;;;;;5.83;100.00;98057.34;4179141;28;20064;-72
2023/05/15 03:34:32;;;;;;;9.65;7.05;;;;;;;5.80;100.00;98064.34;4178725;28;20040;-72
2023/05/15 03:36:32;;;;;;;9.68;7.30;;;;;;;5.82;100.00;98058.50;4183462;28;20094;-72
2023/05/15 03:38:33;;;;;;;10.40;6.75;;;;;;;5.84;100.00;98067.16;4184473;28;20048;-72
2023/05/15 03:40:33;;;;;;;8.73;6.32;;;;;;;5.92;100.00;98074.44;4183922;28;20411;-72
2023/05/15 03:42:33;;;;;;;10.05;6.72;;;;;;;5.92;100.00;98057.97;4181392;28;20033;-72
2023/05/15 03:44:34;;;;;;;9.15;6.88;;;;;;;5.88;100.00;98071.59;4183478;28;20033;-72
2023/05/15 03:46:34;;;;;;;12.13;7.05;;;;;;;5.82;100.00;98072.22;4186632;28;20044;-72
2023/05/15 03:48:34;;;;;;;10.23;7.55;;;;;;;5.72;100.00;98073.56;4179820;28;20153;-72
2023/05/15 03:50:35;;;;;;;11.55;7.53;;;;;;;5.58;100.00;98068.50;4184507;28;20079;-72
2023/05/15 03:52:35;;;;;;;9.25;6.88;;;;;;;5.58;100.00;98062.22;4180360;28;20039;-72
2023/05/15 03:54:36;;;;;;;9.35;6.72;;;;;;;5.55;100.00;98062.94;4184788;28;20041;-72
2023/05/15 03:56:36;;;;;;;11.25;7.97;;;;;;;5.53;100.00;98062.47;4184276;28;20040;-72
2023/05/15 03:58:37;;;;;;;8.70;6.43;;;;;;;5.51;100.00;98056.56;4181796;28;20044;-72
2023/05/15 04:00:37;;;;;;;12.57;7.75;;;;;;;5.52;100.00;98064.44;4181337;28;20067;-72
2023/05/15 04:02:38;;;;;;;15.27;8.35;;;;;;;5.55;100.00;98055.50;4180784;28;20036;-73
2023/05/15 04:04:38;;;;;;;10.98;7.50;;;;;;;5.58;100.00;98048.50;4183814;28;20036;-72
2023/05/15 04:06:38;;;;;;;10.20;7.47;;;;;;;5.62;100.00;98041.94;4181714;28;20497;-72
2023/05/15 04:08:39;;;;;;;9.32;7.45;;;;;;;5.66;100.00;98039.28;4182421;28;20448;-72
2023/05/15 04:10:39;;;;;;;10.00;7.68;;;;;;;5.67;100.00;98037.34;4177941;28;20155;-72
2023/05/15 04:12:39;;;;;;;12.85;8.05;;;;;;;5.70;100.00;98031.13;4179158;28;20131;-72
2023/05/15 04:14:39;;;;;;;10.88;8.13;;;;;;;5.75;100.00;98036.34;4181088;28;20037;-72
2023/05/15 04:16:40;;;;;;;9.38;7.22;;;;;;;5.79;100.00;98049.03;4178886;28;20053;-73
2023/05/15 04:18:40;;;;;;;8.52;6.75;;;;;;;5.83;100.00;98038.13;4177876;28;20384;-72
2023/05/15 04:20:40;;;;;;;11.68;7.82;;;;;;;5.86;100.00;98038.19;4181317;28;20039;-73
2023/05/15 04:22:41;;;;;;;9.27;6.85;;;;;;;5.91;100.00;98048.13;4178657;28;20363;-72
2023/05/15 04:24:42;;;;;;;12.68;7.85;;;;;;;5.94;100.00;98041.13;4180294;28;20120;-72
2023/05/15 04:26:42;;;;;;;13.40;8.70;;;;;;;6.00;100.00;98046.00;4180248;28;20426;-72
2023/05/15 04:28:42;;;;;;;13.15;8.10;;;;;;;6.06;100.00;98047.31;4182477;28;20082;-72
2023/05/15 04:30:43;;;;;;;14.70;9.07;;;;;;;6.10;100.00;98042.69;4179435;28;20461;-72
2023/05/15 04:32:43;;;;;;;9.80;8.25;;;;;;;6.16;100.00;98040.44;4176435;28;20048;-72
2023/05/15 04:34:43;;;;;;;9.25;7.75;;;;;;;6.24;100.00;98030.41;4179486;28;20036;-73
2023/05/15 04:36:43;;;;;;;9.55;7.00;;;;;;;6.33;100.00;98039.25;4177613;28;20052;-72
2023/05/15 04:38:44;;;;;;;15.10;10.65;;;;;;;6.41;100.00;98047.28;4177588;28;20045;-72
2023/05/15 04:40:45;;;;;;;12.40;8.77;;;;;;;6.50;100.00;98049.00;4182465;28;20052;-72
2023/05/15 04:42:45;;;;;;;11.20;8.70;;;;;;;6.61;100.00;98042.56;4175306;28;20068;-73
2023/05/15 04:44:46;;;;;;;9.95;8.38;;;;;;;6.70;100.00;98039.59;4179873;28;20357;-72
2023/05/15 04:46:46;;;;;;;9.23;7.10;;;;;;;6.79;100.00;98042.94;4179658;28;20058;-72
2023/05/15 04:48:46;;;;;;;8.73;6.70;;;;;;;6.85;100.00;98046.97;4179275;28;20474;-72
2023/05/15 04:50:46;;;;;;;8.98;6.47;;;;;;;6.87;100.00;98049.34;4181572;28;20045;-72
2023/05/15 04:52:47;;;;;;;9.43;6.40;;;;;;;6.89;100.00;98047.03;4181390;28;20507;-72
2023/05/15 04:54:49;;;;;;;10.30;6.55;;;;;;;6.90;100.00;98043.91;4130816;27;20081;-72
2023/05/15 04:56:50;;;;;;;11.73;8.23;;;;;;;6.91;100.00;98052.97;4202467;28;20048;-72
2023/05/15 04:58:50;;;;;;;8.70;6.47;;;;;;;6.93;100.00;98039.63;4181797;28;20610;-72
2023/05/15 05:00:50;;;;;;;8.68;6.93;;;;;;;6.97;100.00;98037.75;4181501;28;20067;-72
2023/05/15 05:02:51;;;;;;;9.20;7.55;;;;;;;7.04;100.00;98046.16;4183367;28;20056;-73
2023/05/15 05:04:51;;;;;;;10.95;7.30;;;;;;;7.12;100.00;98045.13;4181619;28;20048;-72
2023/05/15 05:06:51;;;;;;;11.43;6.97;;;;;;;7.23;100.00;98046.09;4181685;28;20084;-72
2023/05/15 05:08:52;;;;;;;11.00;7.05;;;;;;;7.32;100.00;98041.16;4182067;28;20354;-72
2023/05/15 05:10:56;;;;;;;9.32;7.57;;;;;;;7.46;100.00;98048.06;4183001;28;20057;-72
2023/05/15 05:12:56;;;;;;;8.35;6.90;;;;;;;7.57;100.00;98049.81;4183028;28;20041;-72
2023/05/15 05:14:56;;;;;;;8.55;6.95;;;;;;;7.67;100.00;98040.13;4182443;28;20035;-72
2023/05/15 05:16:57;;;;;;;9.10;7.00;;;;;;;7.78;100.00;98034.81;4183081;28;20418;-72
2023/05/15 05:18:57;;;;;;;10.35;7.43;;;;;;;7.86;100.00;98036.47;4182261;28;20044;-72
2023/05/15 05:21:01;;;;;;;10.85;7.65;;;;;;;7.95;100.00;98037.03;4177343;28;20057;-72
2023/05/15 05:23:02;;;;;;;8.20;6.60;;;;;;;8.02;100.00;98044.59;4182591;28;20032;-72
2023/05/15 05:25:02;;;;;;;10.32;7.00;;;;;;;8.07;100.00;98047.81;4181841;28;20301;-72
2023/05/15 05:27:03;;;;;;;8.35;6.78;;;;;;;8.12;100.00;98039.25;4179799;28;20047;-72
2023/05/15 05:29:04;;;;;;;8.68;6.55;;;;;;;8.17;100.00;98038.91;4181785;28;20526;-72
2023/05/15 05:31:05;;;;;;;7.35;5.78;;;;;;;8.26;100.00;98035.09;4182989;28;20146;-72
2023/05/15 05:33:06;;;;;;;13.90;8.38;;;;;;;8.35;100.00;98032.88;4179409;28;20085;-72
2023/05/15 05:35:07;;;;;;;12.50;8.23;;;;;;;8.47;100.00;98035.41;4179346;28;20369;-72
2023/05/15 05:37:07;;;;;;;12.75;8.70;;;;;;;8.66;100.00;98038.00;4181948;28;20041;-72
2023/05/15 05:39:08;;;;;;;13.95;9.25;;;;;;;8.79;100.00;98030.28;4179343;28;20056;-72
2023/05/15 05:41:08;;;;;;;11.18;8.45;;;;;;;8.88;100.00;98029.97;4182045;28;20049;-73
2023/05/15 05:43:08;;;;;;;10.75;8.98;;;;;;;8.99;100.00;98028.91;4180754;28;20047;-72
2023/05/15 05:45:09;;;;;;;11.18;9.55;;;;;;;9.09;100.00;98026.63;4178284;28;20048;-72
2023/05/15 05:47:09;;;;;;;14.55;9.05;;;;;;;9.19;100.00;98025.97;4181870;28;20055;-72
2023/05/15 05:49:10;;;;;;;16.17;9.80;;;;;;;9.29;100.00;98030.78;4184077;28;20045;-72
2023/05/15 05:51:10;;;;;;;12.60;9.70;;;;;;;9.22;100.00;98030.72;4184853;28;20549;-72
2023/05/15 05:53:11;;;;;;;12.02;9.38;;;;;;;9.29;100.00;98025.28;4182728;28;20470;-72
2023/05/15 05:55:11;;;;;;;11.80;9.07;;;;;;;9.38;100.00;98033.25;4185888;28;20040;-72
2023/05/15 05:57:11;;;;;;;13.10;9.43;;;;;;;9.42;100.00;98026.56;4184837;28;20072;-72
2023/05/15 05:59:12;;;;;;;13.32;9.52;;;;;;;9.49;100.00;98018.34;4186134;28;20045;-72
2023/05/15 06:01:12;;;;;;;11.98;9.23;;;;;;;9.60;100.00;98025.91;4181429;28;20389;-72
2023/05/15 06:03:12;;;;;;;11.30;9.15;;;;;;;9.72;100.00;98023.66;4183759;28;20044;-72
2023/05/15 06:05:13;;;;;;;12.82;9.13;;;;;;;9.80;100.00;98019.78;4186001;28;20043;-72
2023/05/15 06:07:13;;;;;;;11.43;9.27;;;;;;;9.92;100.00;98017.88;4182443;28;20381;-73
2023/05/15 06:09:14;;;;;;;12.25;9.25;;;;;;;10.05;100.00;98019.13;4187646;28;20041;-72
2023/05/15 06:11:14;;;;;;;14.68;10.10;;;;;;;10.11;100.00;98023.13;4185806;28;20269;-73
2023/05/15 06:13:15;;;;;;;14.68;9.98;;;;;;;10.16;100.00;98022.75;4182505;28;20040;-72
2023/05/15 06:15:15;;;;;;;11.35;9.77;;;;;;;10.20;100.00;98022.78;4185819;28;20040;-72
2023/05/15 06:17:15;;;;;;;12.18;9.68;;;;;;;10.26;100.00;98027.59;4183923;28;20068;-73
2023/05/15 06:19:16;;;;;;;16.58;9.35;;;;;;;10.37;100.00;98019.34;4187464;28;20216;-72
2023/05/15 06:21:16;;;;;;;14.95;9.38;;;;;;;10.52;100.00;98020.22;4184275;28;20108;-72
2023/05/15 06:23:16;;;;;;;10.85;8.80;;;;;;;10.57;100.00;98020.63;4183424;28;20029;-72
2023/05/15 06:25:17;;;;;;;11.02;8.27;;;;;;;10.69;100.00;98022.25;4185886;28;20048;-73
2023/05/15 06:27:17;;;;;;;10.48;8.93;;;;;;;10.73;100.00;98014.75;4181699;28;20041;-73
2023/05/15 06:29:18;;;;;;;10.57;8.85;;;;;;;10.83;100.00;98015.97;4184255;28;20494;-73
2023/05/15 06:31:18;;;;;;;8.95;8.02;;;;;;;10.91;100.00;98003.72;4184187;28;20053;-73
2023/05/15 06:33:20;;;;;;;9.27;8.05;;;;;;;10.95;100.00;98005.34;4183374;28;20131;-73
2023/05/15 06:35:22;;;;;;;9.73;8.02;;;;;;;11.01;100.00;98005.75;4183981;28;20058;-73
2023/05/15 06:37:23;;;;;;;9.55;8.05;;;;;;;11.12;100.00;98014.06;4184166;28;20033;-72
2023/05/15 06:39:23;;;;;;;11.35;8.25;;;;;;;11.23;100.00;98006.56;4179598;28;20426;-73
2023/05/15 06:41:23;;;;;;;11.50;8.75;;;;;;;11.14;100.00;98006.16;4183625;28;20064;-73
2023/05/15 06:43:24;;;;;;;9.00;7.80;;;;;;;11.17;100.00;98014.50;4183455;28;20166;-73
2023/05/15 06:45:25;;;;;;;9.82;8.32;;;;;;;11.20;100.00;98013.69;4186186;28;20040;-73
2023/05/15 06:47:26;;;;;;;9.35;8.15;;;;;;;11.29;100.00;98007.75;4181487;28;20037;-73
2023/05/15 06:49:26;;;;;;;10.00;8.82;;;;;;;11.43;100.00;98007.00;4186082;28;20147;-73
2023/05/15 06:51:27;;;;;;;7.88;7.07;;;;;;;11.58;100.00;98011.31;4186079;28;20040;-73
2023/05/15 06:53:28;;;;;;;9.50;7.88;;;;;;;11.68;100.00;98013.31;4180717;28;20099;-73
2023/05/15 06:55:28;;;;;;;9.02;7.82;;;;;;;11.65;100.00;98016.88;4183481;28;20200;-73
2023/05/15 06:57:29;;;;;;;9.02;7.78;;;;;;;11.82;100.00;98013.31;4183630;28;20140;-73
2023/05/15 06:59:30;;;;;;;8.77;7.68;;;;;;;11.94;100.00;98003.03;4190157;28;20041;-73
2023/05/15 07:01:30;;;;;;;10.15;7.95;;;;;;;12.06;100.00;98008.16;4181584;28;20041;-73
2023/05/15 07:03:31;;;;;;;9.80;7.78;;;;;;;12.14;100.00;97997.84;4182768;28;20095;-73
2023/05/15 07:05:31;;;;;;;10.65;8.10;;;;;;;12.21;100.00;97998.63;4178292;28;20094;-73
2023/05/15 07:07:32;;;;;;;9.48;8.10;;;;;;;12.36;100.00;98005.69;4184043;28;20074;-73
2023/05/15 07:09:32;;;;;;;10.30;7.68;;;;;;;12.41;100.00;98000.91;4183729;28;20048;-73
2023/05/15 07:11:36;;;;;;;9.10;8.05;;;;;;;12.55;100.00;98003.66;4184697;28;20067;-73
2023/05/15 07:13:36;;;;;;;8.50;7.35;;;;;;;12.55;100.00;98006.44;4180559;28;20040;-73
2023/05/15 07:15:36;;;;;;;11.68;7.75;;;;;;;12.67;100.00;98011.53;4185663;28;20053;-73
2023/05/15 07:17:37;;;;;;;9.82;7.78;;;;;;;12.79;100.00;98004.72;4183623;28;20135;-73
2023/05/15 07:19:37;;;;;;;9.50;7.72;;;;;;;12.90;100.00;98002.69;4183089;28;20047;-73
2023/05/15 07:21:40;;;;;;;9.32;7.88;;;;;;;13.10;100.00;98005.75;4186771;28;20106;-73
2023/05/15 07:23:41;;;;;;;10.55;8.27;;;;;;;13.18;100.00;97999.75;4183279;28;20526;-73
2023/05/15 07:25:41;;;;;;;9.73;8.15;;;;;;;13.27;100.00;97999.31;4184679;28;20091;-73
2023/05/15 07:27:41;;;;;;;11.00;8.75;;;;;;;13.38;100.00;97990.91;4176416;28;20392;-73
2023/05/15 07:29:42;;;;;;;9.15;7.60;;;;;;;13.48;100.00;97993.59;4184750;28;20136;-73
2023/05/15 07:31:43;;;;;;;9.25;7.90;;;;;;;13.57;100.00;98000.69;4183858;28;20036;-73
2023/05/15 07:33:43;;;;;;;9.93;8.35;;;;;;;13.61;100.00;97991.13;4181779;28;20044;-73
2023/05/15 07:35:44;;;;;;;8.27;7.30;;;;;;;13.60;100.00;97997.88;4185080;28;20273;-73
2023/05/15 07:37:45;;;;;;;10.55;7.65;;;;;;;13.56;100.00;97993.53;4183235;28;20040;-73
2023/05/15 07:39:45;;;;;;;10.50;8.43;;;;;;;13.67;100.00;97992.28;4184192;28;20052;-73
2023/05/15 07:41:46;;;;;;;8.57;7.68;;;;;;;13.86;100.00;97990.13;4178577;28;20124;-73
2023/05/15 07:43:46;;;;;;;10.52;7.97;;;;;;;13.95;100.00;97993.19;4179206;28;20465;-73
2023/05/15 07:45:46;;;;;;;8.48;7.63;;;;;;;14.09;100.00;97986.72;4178592;28;20037;-73
2023/05/15 07:47:48;;;;;;;11.75;8.48;;;;;;;14.12;100.00;97995.00;4181772;28;20443;-73
2023/05/15 07:49:48;;;;;;;9.65;7.45;;;;;;;14.15;100.00;97985.03;4184617;28;20053;-73
2023/05/15 07:51:48;;;;;;;7.88;7.05;;;;;;;14.20;100.00;97981.81;4183014;28;20460;-73
2023/05/15 07:53:49;;;;;;;8.95;7.90;;;;;;;14.17;100.00;97986.22;4181118;28;20044;-73
2023/05/15 07:55:49;;;;;;;11.35;8.00;;;;;;;14.23;100.00;97981.78;4184096;28;20040;-73
2023/05/15 07:57:49;;;;;;;8.32;7.50;;;;;;;14.25;100.00;97984.16;4182748;28;20043;-73
2023/05/15 07:59:50;;;;;;;9.10;7.63;;;;;;;14.25;100.00;97978.59;4186769;28;20176;-73
2023/05/15 08:01:50;;;;;;;12.05;7.47;;;;;;;14.39;100.00;97977.63;4176912;28;20086;-73
2023/05/15 08:03:50;;;;;;;11.57;8.48;;;;;;;14.47;100.00;97977.16;4182509;28;20124;-73
2023/05/15 08:05:50;;;;;;;11.48;8.15;;;;;;;14.39;100.00;97983.97;4184294;28;20058;-73
2023/05/15 08:07:51;;;;;;;10.35;8.40;;;;;;;14.43;100.00;97979.16;4180794;28;20087;-73
2023/05/15 08:09:51;;;;;;;10.38;8.45;;;;;;;14.69;100.00;97985.25;4183571;28;20079;-73
2023/05/15 08:11:55;;;;;;;10.45;8.40;;;;;;;14.80;100.00;97974.75;4182632;28;20056;-73
2023/05/15 08:13:55;;;;;;;13.50;7.95;;;;;;;14.92;100.00;97978.97;4182632;28;20040;-73
2023/05/15 08:15:55;;;;;;;10.23;7.55;;;;;;;14.86;100.00;97982.22;4182482;28;20033;-73
2023/05/15 08:17:56;;;;;;;8.25;7.38;;;;;;;14.91;100.00;97974.63;4183100;28;20033;-73
2023/05/15 08:19:56;;;;;;;9.48;8.02;;;;;;;14.77;100.00;97983.94;4181303;28;20057;-73
2023/05/15 08:21:56;;;;;;;8.93;7.50;;;;;;;14.81;100.00;97982.72;4183193;28;20041;-73
2023/05/15 08:23:59;;;;;;;8.25;7.45;;;;;;;14.79;100.00;97984.31;4181426;28;20048;-73
2023/05/15 08:25:59;;;;;;;7.88;6.80;;;;;;;14.83;97.83;97979.50;4184041;28;20051;-73
2023/05/15 08:28:01;;;;;;;6.88;6.18;;;;;;;14.88;92.85;97984.59;4179934;28;20496;-72
2023/05/15 08:30:02;;;;;;;7.97;6.75;;;;;;;14.98;95.67;97974.53;4182598;28;20029;-73
2023/05/15 08:32:05;;;;;;;9.73;7.88;;;;;;;15.10;97.02;97973.94;4182282;28;20025;-73
2023/05/15 08:34:05;;;;;;;9.52;8.43;;;;;;;14.97;95.80;97970.94;4178494;28;20036;-73
2023/05/15 08:36:06;;;;;;;9.32;8.32;;;;;;;15.08;98.20;97971.59;4179310;28;20048;-73
2023/05/15 08:38:06;;;;;;;9.25;7.97;;;;;;;15.16;95.82;97963.91;4182045;28;20162;-73
2023/05/15 08:40:08;;;;;;;10.55;7.03;;;;;;;15.24;92.81;97961.81;4181102;28;20508;-73
2023/05/15 08:42:22;;;;;;;8.77;7.68;;;;;;;15.28;94.01;97959.75;4177391;28;20039;-73
2023/05/15 08:44:23;;;;;;;9.55;7.38;;;;;;;15.20;94.64;97959.06;4182690;28;20826;-73
2023/05/15 08:46:23;;;;;;;9.57;8.50;;;;;;;15.12;94.11;97957.59;4182679;28;20052;-73
2023/05/15 08:48:28;;;;;;;8.57;7.68;;;;;;;15.32;93.76;97949.34;4183848;28;20024;-73
2023/05/15 08:50:28;;;;;;;10.10;7.70;;;;;;;15.46;94.93;97963.81;4182364;28;20043;-73
2023/05/15 08:52:30;;;;;;;8.43;7.18;;;;;;;15.45;89.33;97962.25;4182599;28;20583;-73
2023/05/15 08:54:30;;;;;;;8.63;6.47;;;;;;;15.62;89.43;97963.19;4177239;28;20037;-74
2023/05/15 08:56:31;;;;;;;8.73;7.20;;;;;;;15.63;89.10;97953.59;4180932;28;20379;-73
2023/05/15 08:58:32;;;;;;;10.13;7.00;;;;;;;15.79;91.53;97960.50;4181427;28;20342;-73
2023/05/15 09:00:33;;;;;;;10.52;7.00;;;;;;;15.95;93.16;97950.25;4176714;28;20037;-73
2023/05/15 09:02:38;;;;;;;8.98;6.60;;;;;;;16.13;88.00;97957.50;4181260;28;20041;-73
2023/05/15 09:04:38;;;;;;;9.52;7.25;;;;;;;16.17;89.62;97942.28;4182765;28;20401;-73
2023/05/15 09:06:40;;;;;;;8.15;7.35;;;;;;;16.31;91.71;97946.81;4181144;28;20037;-73
2023/05/15 09:08:42;;;;;;;7.25;6.53;;;;;;;16.18;90.31;97959.81;4176925;28;20493;-73
2023/05/15 09:10:43;;;;;;;10.88;7.00;;;;;;;16.24;91.80;97953.31;4181046;28;20068;-73
2023/05/15 09:12:44;;;;;;;9.18;5.90;;;;;;;16.29;88.25;97943.63;4185277;28;20072;-73
2023/05/15 09:14:45;;;;;;;8.35;6.30;;;;;;;16.48;88.92;97951.22;4181444;28;20077;-73
2023/05/15 09:16:49;;;;;;;8.00;5.50;;;;;;;16.58;83.44;97943.84;4176615;28;20040;-73
2023/05/15 09:18:51;;;;;;;5.25;4.75;;;;;;;16.39;81.11;97942.66;4181341;28;20404;-73
2023/05/15 09:20:51;;;;;;;8.03;4.97;;;;;;;16.28;83.98;97940.06;4179882;28;21066;-73
2023/05/15 09:22:52;;;;;;;6.07;4.72;;;;;;;16.32;80.90;97947.59;4182468;28;20080;-72
2023/05/15 09:24:52;;;;;;;5.40;4.72;;;;;;;16.34;79.14;97945.94;4180370;28;20040;-73
2023/05/15 09:27:03;;;;;;;6.72;5.15;;;;;;;16.45;83.24;97940.13;4180617;28;20052;-73